createdAt,value
2022-12-25T00:01:18.478Z,7.60
2022-12-25T00:03:45.784Z,7.50
2022-12-25T00:06:13.012Z,7.50
2022-12-25T00:08:40.360Z,7.50
2022-12-25T00:11:08.980Z,7.50
2022-12-25T00:13:35.984Z,7.50
2022-12-25T00:16:07.269Z,7.50
2022-12-25T00:18:34.226Z,7.50
2022-12-25T00:21:02.981Z,7.50
2022-12-25T00:23:32.950Z,7.50
2022-12-25T00:25:59.824Z,7.60
2022-12-25T00:28:27.091Z,7.60
2022-12-25T00:30:54.126Z,7.70
2022-12-25T00:33:21.308Z,7.70
2022-12-25T00:35:58.791Z,7.70
2022-12-25T00:38:26.628Z,7.80
2022-12-25T00:40:55.778Z,7.80
2022-12-25T00:43:23.108Z,7.90
2022-12-25T00:45:56.993Z,7.90
2022-12-25T00:48:24.391Z,8.00
2022-12-25T00:50:55.208Z,8.00
2022-12-25T00:53:22.701Z,8.10
2022-12-25T00:55:57.058Z,8.10
2022-12-25T00:58:25.109Z,8.10
2022-12-25T01:00:52.769Z,8.20
2022-12-25T01:03:22.730Z,8.20
2022-12-25T01:05:57.309Z,8.20
2022-12-25T01:08:24.863Z,8.20
2022-12-25T01:10:59.356Z,8.30
2022-12-25T01:13:26.428Z,8.30
2022-12-25T01:15:54.565Z,8.30
2022-12-25T01:21:31.624Z,8.30
2022-12-25T01:23:58.894Z,8.30
2022-12-25T01:26:26.611Z,8.30
2022-12-25T01:28:53.674Z,8.30
2022-12-25T01:31:22.286Z,8.30
2022-12-25T01:33:49.855Z,8.30
2022-12-25T01:36:18.513Z,8.30
2022-12-25T01:38:45.936Z,8.30
2022-12-25T01:41:14.873Z,8.30
2022-12-25T01:44:00.733Z,8.30
2022-12-25T01:46:28.052Z,8.30
2022-12-25T01:48:56.052Z,8.30
2022-12-25T01:51:28.980Z,8.30
2022-12-25T01:53:57.522Z,8.30
2022-12-25T01:56:25.302Z,8.30
2022-12-25T01:58:52.316Z,8.30
2022-12-25T02:01:19.256Z,8.30
2022-12-25T02:03:46.502Z,8.40
2022-12-25T02:06:13.387Z,8.30
2022-12-25T02:08:40.480Z,8.40
2022-12-25T02:11:28.992Z,8.40
2022-12-25T02:13:56.148Z,8.40
2022-12-25T02:16:26.349Z,8.40
2022-12-25T02:18:56.380Z,8.40
2022-12-25T02:21:42.339Z,8.40
2022-12-25T02:24:09.419Z,8.40
2022-12-25T02:26:37.065Z,8.50
2022-12-25T02:29:12.724Z,8.50
2022-12-25T02:31:48.825Z,8.50
2022-12-25T02:34:19.046Z,8.50
2022-12-25T02:36:50.124Z,8.60
2022-12-25T02:39:43.505Z,8.60
2022-12-25T02:42:13.868Z,8.60
2022-12-25T02:45:00.723Z,8.60
2022-12-25T02:47:46.286Z,8.70
2022-12-25T02:50:33.619Z,8.70
2022-12-25T02:53:20.105Z,8.70
2022-12-25T02:56:14.905Z,8.70
2022-12-25T02:59:00.667Z,8.70
2022-12-25T03:01:49.329Z,8.70
2022-12-25T03:04:37.113Z,8.80
2022-12-25T03:07:09.965Z,8.80
2022-12-25T03:10:06.029Z,8.80
2022-12-25T03:12:42.511Z,8.80
2022-12-25T03:15:29.230Z,8.80
2022-12-25T03:17:57.732Z,8.80
2022-12-25T03:20:43.844Z,8.90
2022-12-25T03:23:31.034Z,8.90
2022-12-25T03:26:16.993Z,8.90
2022-12-25T03:28:43.861Z,8.90
2022-12-25T03:31:36.716Z,8.90
2022-12-25T03:34:39.962Z,8.90
2022-12-25T03:37:43.622Z,8.90
2022-12-25T03:40:47.982Z,8.90
2022-12-25T03:43:33.428Z,8.90
2022-12-25T03:46:22.552Z,8.90
2022-12-25T03:49:10.563Z,9.00
2022-12-25T03:51:58.211Z,9.00
2022-12-25T03:54:45.718Z,9.00
2022-12-25T03:57:32.248Z,9.00
2022-12-25T04:00:18.047Z,9.00
2022-12-25T04:03:03.604Z,9.00
2022-12-25T04:05:49.275Z,9.00
2022-12-25T04:08:34.931Z,9.00
2022-12-25T04:11:20.406Z,9.00
2022-12-25T04:14:25.865Z,9.00
2022-12-25T04:17:11.343Z,9.00
2022-12-25T04:19:56.738Z,9.00
2022-12-25T04:22:42.219Z,9.00
2022-12-25T04:25:28.046Z,9.00
2022-12-25T04:28:20.940Z,9.00
2022-12-25T04:31:06.764Z,9.00
2022-12-25T04:33:52.426Z,9.10
2022-12-25T04:36:19.269Z,9.10
2022-12-25T04:38:47.663Z,9.10
2022-12-25T04:41:14.850Z,9.10
2022-12-25T04:43:41.825Z,9.10
2022-12-25T04:46:08.887Z,9.10
2022-12-25T04:48:36.841Z,9.10
2022-12-25T04:51:14.702Z,9.10
2022-12-25T04:53:41.871Z,9.10
2022-12-25T04:56:09.007Z,9.20
2022-12-25T04:58:35.973Z,9.10
2022-12-25T05:01:03.950Z,9.20
2022-12-25T05:03:31.034Z,9.10
2022-12-25T05:05:57.944Z,9.10
2022-12-25T05:08:25.114Z,9.10
2022-12-25T05:10:52.142Z,9.10
2022-12-25T05:13:18.959Z,9.10
2022-12-25T05:15:48.221Z,9.10
2022-12-25T05:18:15.164Z,9.10
2022-12-25T05:20:42.480Z,9.10
2022-12-25T05:23:13.830Z,9.10
2022-12-25T05:25:41.107Z,9.20
2022-12-25T05:28:08.277Z,9.20
2022-12-25T05:30:35.573Z,9.20
2022-12-25T05:33:02.316Z,9.10
2022-12-25T05:35:30.705Z,9.20
2022-12-25T05:37:58.095Z,9.10
2022-12-25T05:40:24.887Z,9.10
2022-12-25T05:42:51.840Z,9.10
2022-12-25T05:45:18.777Z,9.00
2022-12-25T05:47:45.611Z,9.00
2022-12-25T05:50:12.639Z,8.90
2022-12-25T05:52:39.779Z,8.80
2022-12-25T05:55:06.951Z,8.80
2022-12-25T05:57:33.936Z,8.70
2022-12-25T06:00:00.968Z,8.70
2022-12-25T06:02:28.012Z,8.70
2022-12-25T06:04:55.094Z,8.70
2022-12-25T06:07:22.190Z,8.70
2022-12-25T06:09:49.203Z,8.60
2022-12-25T06:12:15.964Z,8.70
2022-12-25T06:14:42.702Z,8.70
2022-12-25T06:17:34.989Z,8.70
2022-12-25T06:20:02.183Z,8.70
2022-12-25T06:22:30.023Z,8.70
2022-12-25T06:24:57.551Z,8.70
2022-12-25T06:27:24.870Z,8.70
2022-12-25T06:29:51.971Z,8.70
2022-12-25T06:32:19.068Z,8.70
2022-12-25T06:34:46.497Z,8.60
2022-12-25T06:37:13.472Z,8.60
2022-12-25T06:39:40.193Z,8.60
2022-12-25T06:42:07.137Z,8.60
2022-12-25T06:44:34.066Z,8.60
2022-12-25T06:47:00.941Z,8.60
2022-12-25T06:49:27.958Z,8.60
2022-12-25T06:51:55.161Z,8.60
2022-12-25T06:54:22.282Z,8.50
2022-12-25T06:56:49.840Z,8.50
2022-12-25T06:59:16.872Z,8.50
2022-12-25T07:01:51.446Z,8.50
2022-12-25T07:04:21.341Z,8.50
2022-12-25T07:06:48.481Z,8.50
2022-12-25T07:09:15.389Z,8.40
2022-12-25T07:11:42.513Z,8.40
2022-12-25T07:14:23.210Z,8.40
2022-12-25T07:16:50.948Z,8.40
2022-12-25T07:19:18.115Z,8.40
2022-12-25T07:21:46.086Z,8.40
2022-12-25T07:24:17.773Z,8.30
2022-12-25T07:26:44.828Z,8.30
2022-12-25T07:29:11.682Z,8.30
2022-12-25T07:31:38.692Z,8.30
2022-12-25T07:34:05.573Z,8.30
2022-12-25T07:36:32.429Z,8.30
2022-12-25T07:38:59.182Z,8.30
2022-12-25T07:41:26.112Z,8.30
2022-12-25T07:44:06.471Z,8.30
2022-12-25T07:46:33.619Z,8.30
2022-12-25T07:49:01.210Z,8.30
2022-12-25T07:51:30.228Z,8.40
2022-12-25T07:53:57.244Z,8.40
2022-12-25T07:56:24.133Z,8.40
2022-12-25T07:58:50.971Z,8.40
2022-12-25T08:01:20.291Z,8.40
2022-12-25T08:03:54.170Z,8.50
2022-12-25T08:06:22.953Z,8.40
2022-12-25T08:08:49.996Z,8.40
2022-12-25T08:11:16.953Z,8.50
2022-12-25T08:13:44.001Z,8.50
2022-12-25T08:16:10.921Z,8.50
2022-12-25T08:18:38.757Z,8.50
2022-12-25T08:21:07.143Z,8.50
2022-12-25T08:23:38.341Z,8.50
2022-12-25T08:26:08.690Z,8.50
2022-12-25T08:28:36.154Z,8.60
2022-12-25T08:31:07.458Z,8.60
2022-12-25T08:33:34.907Z,8.60
2022-12-25T08:36:05.911Z,8.60
2022-12-25T08:38:33.195Z,8.60
2022-12-25T08:41:00.343Z,8.70
2022-12-25T08:43:27.557Z,8.70
2022-12-25T08:45:54.685Z,8.80
2022-12-25T08:48:21.601Z,8.80
2022-12-25T08:50:49.345Z,8.90
2022-12-25T08:53:16.619Z,8.90
2022-12-25T08:55:43.638Z,8.90
2022-12-25T08:58:10.834Z,9.00
2022-12-25T09:00:37.671Z,9.00
2022-12-25T09:03:07.177Z,9.00
2022-12-25T09:05:34.909Z,9.00
2022-12-25T09:08:01.833Z,9.10
2022-12-25T09:10:29.779Z,9.00
2022-12-25T09:13:05.768Z,9.00
2022-12-25T09:15:32.880Z,9.10
2022-12-25T09:17:59.807Z,9.10
2022-12-25T09:20:47.241Z,9.10
2022-12-25T09:23:17.353Z,9.10
2022-12-25T09:25:47.739Z,9.10
2022-12-25T09:37:04.083Z,9.20
2022-12-25T09:39:31.042Z,9.20
2022-12-25T09:42:14.658Z,9.20
2022-12-25T09:44:44.306Z,9.20
2022-12-25T09:47:12.921Z,9.20
2022-12-25T09:49:46.637Z,9.30
2022-12-25T09:52:16.682Z,9.30
2022-12-25T09:54:46.710Z,9.30
2022-12-25T09:57:14.351Z,9.40
2022-12-25T09:59:45.204Z,9.40
2022-12-25T10:02:12.186Z,9.40
2022-12-25T10:04:42.098Z,9.40
2022-12-25T10:07:23.621Z,9.40
2022-12-25T10:10:09.403Z,9.40
2022-12-25T10:12:36.186Z,9.50
2022-12-25T10:15:08.149Z,9.40
2022-12-25T10:17:38.226Z,9.50
2022-12-25T10:20:23.722Z,9.40
2022-12-25T10:22:52.831Z,9.50
2022-12-25T10:25:21.700Z,9.50
2022-12-25T10:27:57.030Z,9.50
2022-12-25T10:30:25.025Z,9.40
2022-12-25T10:32:53.077Z,9.50
2022-12-25T10:35:27.835Z,9.50
2022-12-25T10:37:58.440Z,9.50
2022-12-25T10:40:25.316Z,9.50
2022-12-25T10:43:08.008Z,9.50
2022-12-25T10:45:48.409Z,9.50
2022-12-25T10:48:20.492Z,9.50
2022-12-25T10:50:47.349Z,9.50
2022-12-25T10:53:18.709Z,9.50
2022-12-25T10:56:14.743Z,9.50
2022-12-25T10:58:41.811Z,9.50
2022-12-25T11:01:08.826Z,9.50
2022-12-25T11:03:38.305Z,9.50
2022-12-25T11:06:06.253Z,9.60
2022-12-25T11:08:34.873Z,9.60
2022-12-25T11:11:07.298Z,9.60
2022-12-25T11:13:35.812Z,9.70
2022-12-25T11:16:03.624Z,9.70
2022-12-25T11:18:35.655Z,9.70
2022-12-25T11:21:16.072Z,9.70
2022-12-25T11:23:49.643Z,9.70
2022-12-25T11:26:18.849Z,9.70
2022-12-25T11:28:46.301Z,9.70
2022-12-25T11:31:19.133Z,9.70
2022-12-25T11:33:49.563Z,9.70
2022-12-25T11:36:23.190Z,9.70
2022-12-25T11:38:50.852Z,9.70
2022-12-25T11:41:20.933Z,9.80
2022-12-25T11:43:56.520Z,9.70
2022-12-25T11:46:35.667Z,9.80
2022-12-25T11:49:06.126Z,9.80
2022-12-25T11:51:35.562Z,9.80
2022-12-25T11:54:17.249Z,9.80
2022-12-25T11:56:44.027Z,9.80
2022-12-25T11:59:24.075Z,9.80
2022-12-25T12:01:57.376Z,9.80
2022-12-25T12:04:42.550Z,9.80
2022-12-25T12:07:27.385Z,9.70
2022-12-25T12:09:54.595Z,9.80
2022-12-25T12:12:36.665Z,9.80
2022-12-25T12:15:14.147Z,9.70
2022-12-25T12:17:44.002Z,9.80
2022-12-25T12:20:31.557Z,9.70
2022-12-25T12:22:59.575Z,9.70
2022-12-25T12:25:26.965Z,9.70
2022-12-25T12:28:04.536Z,9.70
2022-12-25T12:30:35.502Z,9.70
2022-12-25T12:33:03.597Z,9.70
2022-12-25T12:35:32.553Z,9.70
2022-12-25T12:38:06.859Z,9.80
2022-12-25T12:40:33.852Z,9.70
2022-12-25T12:43:01.713Z,9.80
2022-12-25T12:45:33.797Z,9.80
2022-12-25T12:48:01.343Z,9.70
2022-12-25T12:50:36.894Z,9.80
2022-12-25T12:53:16.343Z,9.80
2022-12-25T12:55:43.634Z,9.80
2022-12-25T12:58:13.022Z,9.70
2022-12-25T13:00:48.399Z,9.70
2022-12-25T13:03:28.700Z,9.70
2022-12-25T13:06:02.100Z,9.70
2022-12-25T13:08:29.109Z,9.70
2022-12-25T13:11:14.669Z,9.70
2022-12-25T13:13:42.459Z,9.70
2022-12-25T13:16:28.231Z,9.70
2022-12-25T13:18:55.709Z,9.70
2022-12-25T13:21:26.667Z,9.70
2022-12-25T13:24:00.730Z,9.70
2022-12-25T13:26:28.209Z,9.70
2022-12-25T13:28:56.164Z,9.80
2022-12-25T13:31:24.375Z,9.80
2022-12-25T13:33:58.488Z,9.80
2022-12-25T13:36:26.576Z,9.80
2022-12-25T13:38:55.061Z,9.80
2022-12-25T13:41:44.555Z,9.80
2022-12-25T13:44:17.966Z,9.80
2022-12-25T13:46:44.979Z,9.80
2022-12-25T13:49:16.646Z,9.80
2022-12-25T13:51:43.845Z,9.80
2022-12-25T13:54:11.871Z,9.80
2022-12-25T13:56:46.374Z,9.80
2022-12-25T13:59:19.549Z,9.80
2022-12-25T14:01:49.573Z,9.80
2022-12-25T14:04:17.865Z,9.80
2022-12-25T14:06:44.815Z,9.80
2022-12-25T14:09:12.939Z,9.80
2022-12-25T14:11:41.382Z,9.80
2022-12-25T14:14:14.679Z,9.80
2022-12-25T14:16:43.527Z,9.80
2022-12-25T14:19:22.547Z,9.80
2022-12-25T14:21:54.077Z,9.80
2022-12-25T14:24:23.272Z,9.80
2022-12-25T14:26:56.352Z,9.80
2022-12-25T14:29:28.192Z,9.80
2022-12-25T14:31:57.201Z,9.80
2022-12-25T14:34:24.808Z,9.80
2022-12-25T14:36:52.364Z,9.80
2022-12-25T14:39:38.153Z,9.80
2022-12-25T14:42:13.561Z,9.80
2022-12-25T14:44:40.930Z,9.80
2022-12-25T14:47:10.799Z,9.80
2022-12-25T14:49:38.171Z,9.80
2022-12-25T14:52:24.048Z,9.90
2022-12-25T14:54:54.055Z,9.90
2022-12-25T14:57:29.108Z,9.90
2022-12-25T14:59:57.264Z,9.90
2022-12-25T15:02:24.387Z,9.80
2022-12-25T15:04:51.449Z,9.90
2022-12-25T15:07:31.098Z,9.80
2022-12-25T15:10:25.546Z,9.90
2022-12-25T15:12:45.599Z,9.90
2022-12-25T15:15:12.329Z,9.90
2022-12-25T15:17:39.124Z,9.90
2022-12-25T15:20:08.529Z,9.90
2022-12-25T15:23:02.516Z,9.90
2022-12-25T15:28:12.783Z,9.80
2022-12-25T15:30:40.267Z,9.80
2022-12-25T15:33:07.622Z,9.90
2022-12-25T15:35:34.613Z,9.80
2022-12-25T15:38:01.444Z,9.80
2022-12-25T15:40:28.486Z,9.80
2022-12-25T15:42:56.367Z,9.80
2022-12-25T15:45:24.939Z,9.80
2022-12-25T15:47:51.712Z,9.90
2022-12-25T15:50:19.202Z,9.80
2022-12-25T15:52:46.930Z,9.80
2022-12-25T15:55:14.068Z,9.80
2022-12-25T15:57:42.025Z,9.80
2022-12-25T16:00:13.518Z,9.80
2022-12-25T16:02:40.357Z,9.80
2022-12-25T16:05:10.493Z,9.80
2022-12-25T16:07:37.758Z,9.80
2022-12-25T16:10:05.467Z,9.80
2022-12-25T16:12:32.360Z,9.80
2022-12-25T16:14:59.577Z,9.80
2022-12-25T16:17:26.415Z,9.80
2022-12-25T16:19:53.207Z,9.80
2022-12-25T16:22:21.749Z,9.80
2022-12-25T16:24:49.225Z,9.70
2022-12-25T16:27:16.297Z,9.70
2022-12-25T16:29:43.244Z,9.80
2022-12-25T16:32:14.124Z,9.70
2022-12-25T16:34:41.201Z,9.70
2022-12-25T16:37:08.026Z,9.70
2022-12-25T16:39:34.738Z,9.70
2022-12-25T16:42:01.613Z,9.70
2022-12-25T16:44:28.731Z,9.70
2022-12-25T16:46:55.666Z,9.70
2022-12-25T16:49:22.632Z,9.70
2022-12-25T16:51:49.427Z,9.70
2022-12-25T16:54:16.287Z,9.70
2022-12-25T16:56:43.071Z,9.80
2022-12-25T16:59:09.859Z,9.80
2022-12-25T17:01:38.140Z,9.80
2022-12-25T17:04:05.319Z,9.80
2022-12-25T17:06:32.342Z,9.80
2022-12-25T17:08:59.979Z,9.80
2022-12-25T17:11:30.054Z,9.80
2022-12-25T17:14:02.690Z,9.80
2022-12-25T17:16:30.970Z,9.80
2022-12-25T17:19:01.186Z,9.80
2022-12-25T17:21:28.973Z,9.80
2022-12-25T17:24:01.710Z,9.80
2022-12-25T17:26:30.891Z,9.80
2022-12-25T17:28:58.264Z,9.80
2022-12-25T17:31:25.479Z,9.80
2022-12-25T17:33:52.393Z,9.80
2022-12-25T17:36:19.858Z,9.80
2022-12-25T17:38:47.670Z,9.80
2022-12-25T17:41:15.572Z,9.90
2022-12-25T17:43:44.220Z,9.90
2022-12-25T17:46:12.706Z,9.90
2022-12-25T17:48:39.780Z,9.90
2022-12-25T17:51:08.100Z,9.90
2022-12-25T17:53:36.106Z,9.80
2022-12-25T17:56:03.145Z,9.90
2022-12-25T17:58:29.963Z,9.90
2022-12-25T18:00:57.229Z,9.90
2022-12-25T18:03:24.258Z,9.90
2022-12-25T18:05:51.420Z,9.90
2022-12-25T18:08:18.126Z,9.90
2022-12-25T18:10:45.062Z,9.90
2022-12-25T18:13:12.046Z,10.00
2022-12-25T18:15:39.780Z,10.00
2022-12-25T18:18:08.032Z,10.00
2022-12-25T18:20:39.938Z,10.10
2022-12-25T18:23:07.710Z,10.10
2022-12-25T18:25:34.612Z,10.10
2022-12-25T18:28:02.855Z,10.10
2022-12-25T18:30:29.746Z,10.20
2022-12-25T18:32:56.626Z,10.20
2022-12-25T18:35:28.834Z,10.20
2022-12-25T18:37:56.014Z,10.20
2022-12-25T18:40:23.033Z,10.20
2022-12-25T18:42:53.852Z,10.30
2022-12-25T18:45:24.747Z,10.30
2022-12-25T18:47:51.634Z,10.30
2022-12-25T18:50:18.541Z,10.30
2022-12-25T18:52:48.591Z,10.40
2022-12-25T18:55:18.477Z,10.50
2022-12-25T18:57:45.413Z,10.60
2022-12-25T19:00:12.300Z,10.70
2022-12-25T19:02:39.355Z,10.70
2022-12-25T19:05:06.683Z,10.70
2022-12-25T19:07:33.710Z,10.70
2022-12-25T19:10:00.537Z,10.80
2022-12-25T19:12:27.511Z,10.80
2022-12-25T19:14:54.293Z,10.80
2022-12-25T19:17:22.601Z,10.80
2022-12-25T19:19:52.547Z,10.80
2022-12-25T19:22:19.204Z,10.80
2022-12-25T19:24:46.190Z,10.80
2022-12-25T19:27:13.160Z,10.90
2022-12-25T19:29:40.041Z,10.80
2022-12-25T19:32:07.005Z,10.90
2022-12-25T19:34:33.938Z,10.90
2022-12-25T19:37:00.816Z,10.80
2022-12-25T19:39:29.983Z,10.80
2022-12-25T19:41:57.149Z,10.80
2022-12-25T19:44:24.026Z,10.90
2022-12-25T19:46:51.076Z,10.90
2022-12-25T19:49:17.859Z,10.90
2022-12-25T19:51:45.344Z,10.90
2022-12-25T19:54:13.526Z,10.90
2022-12-25T19:56:41.075Z,10.90
2022-12-25T19:59:07.839Z,10.90
2022-12-25T20:01:34.831Z,10.90
2022-12-25T20:04:01.972Z,10.90
2022-12-25T20:06:29.901Z,10.90
2022-12-25T20:09:02.209Z,10.90
2022-12-25T20:11:30.109Z,10.90
2022-12-25T20:13:57.367Z,10.90
2022-12-25T20:16:24.526Z,10.90
2022-12-25T20:18:51.682Z,10.90
2022-12-25T20:21:19.828Z,10.80
2022-12-25T20:23:47.955Z,10.80
2022-12-25T20:26:15.498Z,10.80
2022-12-25T20:28:42.680Z,10.90
2022-12-25T20:31:12.474Z,10.80
2022-12-25T20:33:39.468Z,10.80
2022-12-25T20:36:06.729Z,10.80
2022-12-25T20:38:33.850Z,10.80
2022-12-25T20:43:52.823Z,10.80
2022-12-25T20:46:19.659Z,10.80
2022-12-25T20:48:46.813Z,10.80
2022-12-25T20:51:17.839Z,10.80
2022-12-25T20:53:45.085Z,10.80
2022-12-25T20:56:12.556Z,10.80
2022-12-25T20:58:39.970Z,10.80
2022-12-25T21:01:12.949Z,10.80
2022-12-25T21:03:40.405Z,10.80
2022-12-25T21:06:07.947Z,10.80
2022-12-25T21:08:35.801Z,10.80
2022-12-25T21:11:03.984Z,10.80
2022-12-25T21:13:32.202Z,10.80
2022-12-25T21:15:59.299Z,10.80
2022-12-25T21:18:27.710Z,10.80
2022-12-25T21:20:56.297Z,10.80
2022-12-25T21:23:23.707Z,10.80
2022-12-25T21:25:51.004Z,10.80
2022-12-25T21:28:17.971Z,10.90
2022-12-25T21:30:44.900Z,10.90
2022-12-25T21:33:31.103Z,10.80
2022-12-25T21:36:04.862Z,10.90
2022-12-25T21:38:31.695Z,10.90
2022-12-25T21:41:17.241Z,10.90
2022-12-25T21:43:44.072Z,10.90
2022-12-25T21:46:11.995Z,10.90
2022-12-25T21:48:39.383Z,10.90
2022-12-25T21:51:57.655Z,10.90
2022-12-25T21:54:24.412Z,10.90
2022-12-25T21:56:51.214Z,10.90
2022-12-25T21:59:21.802Z,10.90
2022-12-25T22:01:49.061Z,10.90
2022-12-25T22:04:16.787Z,10.90
2022-12-25T22:07:03.267Z,11.00
2022-12-25T22:09:30.035Z,11.00
2022-12-25T22:12:15.950Z,11.00
2022-12-25T22:14:56.605Z,11.00
2022-12-25T22:17:44.347Z,10.90
2022-12-25T22:20:16.572Z,11.00
2022-12-25T22:22:43.290Z,10.90
2022-12-25T22:25:10.704Z,10.90
2022-12-25T22:27:38.300Z,10.90
2022-12-25T22:30:06.375Z,11.00
2022-12-25T22:32:33.643Z,11.00
2022-12-25T22:35:00.544Z,10.90
2022-12-25T22:37:27.590Z,10.90
2022-12-25T22:39:54.330Z,11.00
2022-12-25T22:42:21.485Z,11.00
2022-12-25T22:44:48.242Z,11.00
2022-12-25T22:47:15.411Z,11.00
2022-12-25T22:49:42.387Z,11.00
2022-12-25T22:52:09.874Z,11.00
2022-12-25T22:54:37.103Z,11.00
2022-12-25T22:57:06.234Z,11.00
2022-12-25T22:59:33.510Z,11.00
2022-12-25T23:02:00.905Z,11.00
2022-12-25T23:04:28.454Z,11.00
2022-12-25T23:06:55.652Z,11.00
2022-12-25T23:09:27.650Z,11.00
2022-12-25T23:11:58.342Z,11.00
2022-12-25T23:14:41.627Z,11.00
2022-12-25T23:17:29.489Z,11.00
2022-12-25T23:20:16.837Z,11.00
2022-12-25T23:23:03.032Z,10.90
2022-12-25T23:25:48.532Z,10.90
2022-12-25T23:28:35.631Z,10.90
2022-12-25T23:31:02.621Z,10.90
2022-12-25T23:33:29.420Z,10.90
2022-12-25T23:35:56.423Z,10.90
2022-12-25T23:38:23.103Z,11.00
2022-12-25T23:40:50.006Z,11.00
2022-12-25T23:43:16.894Z,11.00
2022-12-25T23:45:43.774Z,10.90
2022-12-25T23:48:10.532Z,10.90
2022-12-25T23:50:37.731Z,10.90
2022-12-25T23:53:04.476Z,11.00
2022-12-25T23:55:33.068Z,10.90
2022-12-25T23:57:59.900Z,10.90
